Daodi, China
Current Conditions -  °F | °C
As of 6:30 PM on Monday 22 Dec 2014 (Local Time) from ZBTJ Reporting Station
Haze Haze  
Wind Chill: 34°   Ceiling: Unl
Heat Index: 37°   Visibility: 2.8mi
Dew Point: 10°   Wind: 4mph
Humidity: 33%   Direction: 200°SSW
Pressure: 30.21"   Gusts: NA
Location:  39.53°N, 118.18°E
Report Text: ZBTJ 221030Z 20002MPS 4500 HZ NSC 03/M12 Q1023 NOSIG
Loading
Personal Weather Stations






























Interactive Weather Map New forecast layout! Learn more

10-Day Weather Forecast

Advertisements
Track Severe Weather on mobile